Time;durP1;ratioP1;P1;durP2;ratioP2;P2;SDS_P1;SDS_P2;PMS_P1;PMS_P2;Temp;Humidity;BMP_temperature;BMP_pressure;BME280_temperature;BME280_humidity;BME280_pressure;Samples;Min_cycle;Max_cycle;Signal;HPM_P1;HPM_P2
2024/01/14 00:00:06;;;;;;;;;;;-4.00;64.20;;;;;;5054294;28;20324;-74
2024/01/14 00:02:33;;;;;;;;;;;-4.00;64.00;;;;;;5051566;28;20007;-73
2024/01/14 00:04:59;;;;;;;;;;;-4.10;63.60;;;;;;5051873;28;20011;-74
2024/01/14 00:07:25;;;;;;;;;;;-4.10;64.30;;;;;;5051713;28;19916;-73
2024/01/14 00:09:51;;;;;;;;;;;-4.20;64.80;;;;;;5050696;28;19964;-73
2024/01/14 00:12:17;;;;;;;;;;;-4.20;64.60;;;;;;5051729;28;19967;-74
2024/01/14 00:14:43;;;;;;;;;;;-4.10;64.70;;;;;;5050436;28;20281;-75
2024/01/14 00:17:10;;;;;;;;;;;-4.10;64.50;;;;;;5051446;28;19923;-74
2024/01/14 00:19:36;;;;;;;;;;;-4.10;64.40;;;;;;5050809;28;19921;-74
2024/01/14 00:22:02;;;;;;;;;;;-4.00;64.30;;;;;;5051240;28;19920;-74
2024/01/14 00:24:28;;;;;;;;;;;-4.10;64.30;;;;;;5055890;28;19924;-74
2024/01/14 00:26:54;;;;;;;;;;;-4.00;64.50;;;;;;5059388;28;19916;-74
2024/01/14 00:29:20;;;;;;;;;;;-4.10;64.60;;;;;;5049490;28;19921;-74
2024/01/14 00:31:46;;;;;;;;;;;-4.00;64.50;;;;;;5051031;28;19920;-74
2024/01/14 00:34:13;;;;;;;;;;;-4.00;64.50;;;;;;5051383;28;20357;-74
2024/01/14 00:36:39;;;;;;;;;;;-4.00;63.70;;;;;;5050222;28;19978;-74
2024/01/14 00:39:06;;;;;;;;;;;-4.00;64.50;;;;;;5033078;28;19967;-74
2024/01/14 00:41:33;;;;;;;;;;;-4.00;64.10;;;;;;5049392;28;19920;-74
2024/01/14 00:44:00;;;;;;;;;;;-3.90;64.50;;;;;;5050163;28;19971;-74
2024/01/14 00:46:26;;;;;;;;;;;-3.90;65.00;;;;;;5049961;28;19960;-74
2024/01/14 00:48:52;;;;;;;;;;;-4.00;65.30;;;;;;5033561;28;19943;-74
2024/01/14 00:51:18;;;;;;;;;;;-4.00;65.30;;;;;;5048901;28;20393;-74
2024/01/14 00:53:44;;;;;;;;;;;-4.00;65.00;;;;;;5051336;28;19955;-73
2024/01/14 00:56:11;;;;;;;;;;;-4.00;65.00;;;;;;5051191;28;19917;-74
2024/01/14 00:58:38;;;;;;;;;;;-4.00;65.00;;;;;;5049825;28;19964;-74
2024/01/14 01:01:04;;;;;;;;;;;-4.00;64.60;;;;;;5049225;28;19944;-74
2024/01/14 01:03:30;;;;;;;;;;;-4.10;64.80;;;;;;5050910;28;19927;-73
2024/01/14 01:05:56;;;;;;;;;;;-4.00;64.80;;;;;;5049764;28;20007;-73
2024/01/14 01:08:22;;;;;;;;;;;-4.00;64.80;;;;;;5049890;28;19927;-74
2024/01/14 01:10:49;;;;;;;;;;;-4.00;65.10;;;;;;5050518;28;19990;-74
2024/01/14 01:13:15;;;;;;;;;;;-4.10;65.20;;;;;;5049906;28;19943;-74
2024/01/14 01:15:41;;;;;;;;;;;-4.10;65.50;;;;;;5049111;28;19951;-74
2024/01/14 01:18:07;;;;;;;;;;;-4.20;65.50;;;;;;5049899;28;20000;-74
2024/01/14 01:20:33;;;;;;;;;;;-4.20;65.00;;;;;;5048996;28;19920;-74
2024/01/14 01:22:59;;;;;;;;;;;-4.20;65.40;;;;;;5040336;28;19920;-73
2024/01/14 01:25:25;;;;;;;;;;;-4.10;65.30;;;;;;5050878;28;19921;-74
2024/01/14 01:27:51;;;;;;;;;;;-4.20;65.20;;;;;;5050740;28;20302;-74
2024/01/14 01:30:17;;;;;;;;;;;-4.20;65.20;;;;;;5050413;28;20365;-74
2024/01/14 01:32:43;;;;;;;;;;;-4.20;65.10;;;;;;5051098;28;19919;-74
2024/01/14 01:35:09;;;;;;;;;;;-4.20;65.30;;;;;;5049046;28;19917;-74
2024/01/14 01:37:35;;;;;;;;;;;-4.20;65.30;;;;;;5049399;28;19962;-74
2024/01/14 01:40:01;;;;;;;;;;;-4.20;65.40;;;;;;5050742;28;19986;-73
2024/01/14 01:42:27;;;;;;;;;;;-4.20;65.30;;;;;;5050523;28;20015;-74
2024/01/14 01:44:53;;;;;;;;;;;-4.20;66.00;;;;;;5049619;28;19927;-73
2024/01/14 01:47:20;;;;;;;;;;;-4.20;65.50;;;;;;5049137;28;20331;-74
2024/01/14 01:49:46;;;;;;;;;;;-4.20;65.40;;;;;;5050842;28;19924;-74
2024/01/14 01:52:13;;;;;;;;;;;-4.20;65.60;;;;;;5048903;28;19928;-74
2024/01/14 01:54:39;;;;;;;;;;;-4.20;65.70;;;;;;5049465;28;20361;-74
2024/01/14 01:57:06;;;;;;;;;;;-4.20;65.50;;;;;;5049283;28;19916;-74
2024/01/14 01:59:32;;;;;;;;;;;-4.30;65.50;;;;;;5050314;28;19929;-74
2024/01/14 02:01:59;;;;;;;;;;;-4.30;65.90;;;;;;5050286;28;20008;-74
2024/01/14 02:04:26;;;;;;;;;;;-4.30;65.70;;;;;;5050744;28;19920;-74
2024/01/14 02:06:52;;;;;;;;;;;-4.30;65.50;;;;;;5053336;28;19923;-74
2024/01/14 02:09:18;;;;;;;;;;;-4.30;65.50;;;;;;5054256;28;20547;-73
2024/01/14 02:11:44;;;;;;;;;;;-4.30;65.80;;;;;;5052110;28;20369;-74
2024/01/14 02:14:10;;;;;;;;;;;-4.20;66.00;;;;;;5052905;28;19934;-74
2024/01/14 02:16:36;;;;;;;;;;;-4.20;65.50;;;;;;5053553;28;19917;-74
2024/01/14 02:19:02;;;;;;;;;;;-4.20;64.70;;;;;;5054381;28;19927;-74
2024/01/14 02:21:50;;;;;;;;;;;-4.20;65.30;;;;;;5052405;28;19928;-74
2024/01/14 02:24:35;;;;;;;;;;;-4.20;65.60;;;;;;5054080;28;19975;-74
2024/01/14 02:27:01;;;;;;;;;;;-4.20;65.70;;;;;;5044486;28;19927;-74
2024/01/14 02:29:46;;;;;;;;;;;-4.20;65.50;;;;;;5052343;28;20293;-74
2024/01/14 02:32:12;;;;;;;;;;;-4.20;65.50;;;;;;5044686;28;20278;-74
2024/01/14 02:34:38;;;;;;;;;;;-4.20;65.10;;;;;;5052721;28;19959;-73
2024/01/14 02:37:04;;;;;;;;;;;-4.20;65.70;;;;;;5053455;28;20397;-74
2024/01/14 02:39:30;;;;;;;;;;;-4.20;65.30;;;;;;5054135;28;19928;-74
2024/01/14 02:41:56;;;;;;;;;;;-4.20;65.50;;;;;;5052894;28;19921;-74
2024/01/14 02:44:21;;;;;;;;;;;-4.20;65.30;;;;;;5052296;28;19927;-74
2024/01/14 02:46:47;;;;;;;;;;;-4.20;65.60;;;;;;5052155;28;20280;-74
2024/01/14 02:49:13;;;;;;;;;;;-4.20;65.50;;;;;;5053184;28;19925;-74
2024/01/14 02:51:39;;;;;;;;;;;-4.20;65.30;;;;;;5051597;28;19921;-74
2024/01/14 02:54:05;;;;;;;;;;;-4.20;65.40;;;;;;5051428;28;19921;-74
2024/01/14 02:56:31;;;;;;;;;;;-4.20;65.50;;;;;;5052125;28;19924;-73
2024/01/14 02:58:57;;;;;;;;;;;-4.10;65.50;;;;;;5053493;28;20373;-74
2024/01/14 03:01:23;;;;;;;;;;;-4.10;65.40;;;;;;5050968;28;19921;-73
2024/01/14 03:03:49;;;;;;;;;;;-4.10;65.60;;;;;;5052233;28;19931;-74
2024/01/14 03:06:14;;;;;;;;;;;-4.10;65.70;;;;;;5035328;28;20377;-74
2024/01/14 03:08:40;;;;;;;;;;;-4.10;65.90;;;;;;5053057;28;19927;-74
2024/01/14 03:11:06;;;;;;;;;;;-4.00;65.70;;;;;;5052672;28;19921;-74
2024/01/14 03:13:32;;;;;;;;;;;-4.00;65.50;;;;;;5051536;28;19928;-74
2024/01/14 03:15:58;;;;;;;;;;;-4.00;65.60;;;;;;5051574;28;19924;-74
2024/01/14 03:18:25;;;;;;;;;;;-4.00;65.70;;;;;;5052937;28;20441;-74
2024/01/14 03:20:51;;;;;;;;;;;-4.00;65.70;;;;;;5050748;28;20003;-74
2024/01/14 03:23:18;;;;;;;;;;;-4.00;65.60;;;;;;5051638;28;19920;-74
2024/01/14 03:25:44;;;;;;;;;;;-3.90;65.80;;;;;;5050983;28;19932;-74
2024/01/14 03:28:09;;;;;;;;;;;-3.90;65.70;;;;;;5051483;28;20007;-74
2024/01/14 03:30:35;;;;;;;;;;;-3.90;65.60;;;;;;5051984;28;19967;-74
2024/01/14 03:33:01;;;;;;;;;;;-4.00;65.60;;;;;;5052586;28;19929;-74
2024/01/14 03:35:27;;;;;;;;;;;-3.90;65.60;;;;;;5051230;28;19995;-73
2024/01/14 03:37:53;;;;;;;;;;;-4.00;65.40;;;;;;5050945;28;19927;-74
2024/01/14 03:40:19;;;;;;;;;;;-4.00;65.60;;;;;;5034196;28;20425;-74
2024/01/14 03:42:45;;;;;;;;;;;-4.00;65.70;;;;;;5052528;28;20809;-74
2024/01/14 03:45:11;;;;;;;;;;;-4.00;66.10;;;;;;5051033;28;20389;-74
2024/01/14 03:47:37;;;;;;;;;;;-4.00;66.40;;;;;;5051012;28;19924;-74
2024/01/14 03:50:03;;;;;;;;;;;-4.00;66.40;;;;;;5052017;28;19916;-74
2024/01/14 03:52:29;;;;;;;;;;;-4.00;65.40;;;;;;5052206;28;19920;-74
2024/01/14 03:54:55;;;;;;;;;;;-3.90;66.10;;;;;;5052129;28;19927;-74
2024/01/14 03:57:21;;;;;;;;;;;-3.90;66.50;;;;;;5052295;28;20018;-74
2024/01/14 03:59:47;;;;;;;;;;;-3.90;66.40;;;;;;5050794;28;19923;-74
2024/01/14 04:02:13;;;;;;;;;;;-3.90;66.40;;;;;;5049869;28;19920;-74
2024/01/14 04:04:39;;;;;;;;;;;-3.80;66.40;;;;;;5052426;28;20007;-74
2024/01/14 04:07:05;;;;;;;;;;;-3.80;66.10;;;;;;5051808;28;20373;-74
2024/01/14 04:09:30;;;;;;;;;;;-3.80;65.90;;;;;;5052270;28;19925;-74
2024/01/14 04:11:56;;;;;;;;;;;-3.70;66.00;;;;;;5050215;28;19920;-73
2024/01/14 04:14:22;;;;;;;;;;;-3.80;66.20;;;;;;5050068;28;19975;-74
2024/01/14 04:16:48;;;;;;;;;;;-3.70;66.10;;;;;;5051750;28;19974;-73
2024/01/14 04:19:14;;;;;;;;;;;-3.70;66.30;;;;;;5051797;28;19976;-74
2024/01/14 04:21:40;;;;;;;;;;;-3.70;66.40;;;;;;5047769;28;20011;-74
2024/01/14 04:24:06;;;;;;;;;;;-3.70;66.40;;;;;;5049735;28;20350;-74
2024/01/14 04:26:32;;;;;;;;;;;-3.70;66.50;;;;;;5049294;28;20348;-74
2024/01/14 04:28:58;;;;;;;;;;;-3.70;66.40;;;;;;5050117;28;19931;-74
2024/01/14 04:31:23;;;;;;;;;;;-3.70;66.20;;;;;;5048072;28;19934;-74
2024/01/14 04:33:49;;;;;;;;;;;-3.60;65.90;;;;;;5052031;28;19921;-74
2024/01/14 04:36:15;;;;;;;;;;;-3.60;66.00;;;;;;5050300;28;19920;-74
2024/01/14 04:38:41;;;;;;;;;;;-3.60;65.90;;;;;;5050098;28;20327;-73
2024/01/14 04:41:07;;;;;;;;;;;-3.60;66.00;;;;;;5049221;28;19920;-74
2024/01/14 04:43:35;;;;;;;;;;;-3.60;66.50;;;;;;5050083;28;20396;-74
2024/01/14 04:46:01;;;;;;;;;;;-3.60;66.30;;;;;;5051085;28;19943;-74
2024/01/14 04:48:27;;;;;;;;;;;-3.60;66.20;;;;;;5050285;28;20007;-74
2024/01/14 04:50:53;;;;;;;;;;;-3.60;66.20;;;;;;5049380;28;19921;-74
2024/01/14 04:53:19;;;;;;;;;;;-3.60;65.40;;;;;;5051142;28;19927;-74
2024/01/14 04:55:45;;;;;;;;;;;-3.60;65.90;;;;;;5049450;28;19916;-74
2024/01/14 04:58:11;;;;;;;;;;;-3.60;66.10;;;;;;5050725;28;19974;-73
2024/01/14 05:00:37;;;;;;;;;;;-3.60;66.00;;;;;;5049271;28;19924;-73
2024/01/14 05:03:04;;;;;;;;;;;-3.50;66.20;;;;;;5051280;28;19976;-74
2024/01/14 05:05:29;;;;;;;;;;;-3.60;65.60;;;;;;5050022;28;19921;-74
2024/01/14 05:07:55;;;;;;;;;;;-3.50;66.30;;;;;;5049893;28;19928;-74
2024/01/14 05:10:21;;;;;;;;;;;-3.50;66.10;;;;;;5050562;28;20272;-74
2024/01/14 05:12:47;;;;;;;;;;;-3.50;66.10;;;;;;5051569;28;19916;-74
2024/01/14 05:15:13;;;;;;;;;;;-3.50;66.00;;;;;;5049864;28;20015;-74
2024/01/14 05:17:39;;;;;;;;;;;-3.50;65.90;;;;;;5051589;28;19923;-74
2024/01/14 05:20:06;;;;;;;;;;;-3.40;66.20;;;;;;5049212;28;20285;-74
2024/01/14 05:22:32;;;;;;;;;;;-3.50;66.40;;;;;;5032760;28;19958;-74
2024/01/14 05:24:58;;;;;;;;;;;-3.50;65.80;;;;;;5049591;28;20298;-74
2024/01/14 05:27:23;;;;;;;;;;;-3.40;66.10;;;;;;5049214;28;19917;-74
2024/01/14 05:29:49;;;;;;;;;;;-3.40;66.20;;;;;;5051303;28;20400;-73
2024/01/14 05:32:16;;;;;;;;;;;-3.40;66.40;;;;;;5050153;28;20409;-74
2024/01/14 05:34:43;;;;;;;;;;;-3.30;66.10;;;;;;5049401;28;20432;-74
2024/01/14 05:37:09;;;;;;;;;;;-3.30;66.00;;;;;;5033032;28;19916;-74
2024/01/14 05:39:35;;;;;;;;;;;-3.30;66.00;;;;;;5052845;28;19924;-74
2024/01/14 05:42:01;;;;;;;;;;;-3.40;65.20;;;;;;5052666;28;19927;-74
2024/01/14 05:44:27;;;;;;;;;;;-3.30;65.80;;;;;;5036755;28;20343;-74
2024/01/14 05:46:54;;;;;;;;;;;-3.40;65.80;;;;;;5053493;28;19917;-74
2024/01/14 05:49:20;;;;;;;;;;;-3.40;65.70;;;;;;5053470;28;19927;-74
2024/01/14 05:51:46;;;;;;;;;;;-3.40;65.10;;;;;;5052611;28;19925;-74
2024/01/14 05:54:13;;;;;;;;;;;-3.40;65.10;;;;;;5053136;28;20341;-74
2024/01/14 05:56:39;;;;;;;;;;;-3.40;65.40;;;;;;5052919;28;19921;-74
2024/01/14 05:59:05;;;;;;;;;;;-3.40;65.80;;;;;;5052831;28;19921;-74
2024/01/14 06:01:30;;;;;;;;;;;-3.40;65.70;;;;;;5053694;28;20015;-74
2024/01/14 06:03:56;;;;;;;;;;;-3.30;65.70;;;;;;5052865;28;20023;-74
2024/01/14 06:06:22;;;;;;;;;;;-3.40;65.50;;;;;;5036225;28;19917;-74
2024/01/14 06:08:49;;;;;;;;;;;-3.40;65.10;;;;;;5052797;28;19925;-74
2024/01/14 06:11:15;;;;;;;;;;;-3.40;65.70;;;;;;5053884;28;19944;-74
2024/01/14 06:16:25;;;;;;;;;;;-3.50;65.90;;;;;;5052695;28;19962;-74
2024/01/14 06:18:51;;;;;;;;;;;-3.60;65.80;;;;;;5054242;28;19920;-74
2024/01/14 06:21:17;;;;;;;;;;;-3.60;65.90;;;;;;5051925;28;20452;-74
2024/01/14 06:23:43;;;;;;;;;;;-3.70;65.70;;;;;;5054159;28;19939;-74
2024/01/14 06:26:33;;;;;;;;;;;-3.70;65.70;;;;;;5052409;28;19916;-74
2024/01/14 06:28:59;;;;;;;;;;;-3.60;65.40;;;;;;5047173;28;19927;-73
2024/01/14 06:31:24;;;;;;;;;;;-3.60;65.50;;;;;;5053232;28;20004;-75
2024/01/14 06:33:51;;;;;;;;;;;-3.60;65.60;;;;;;5052502;28;19921;-74
2024/01/14 06:36:36;;;;;;;;;;;-3.60;65.70;;;;;;5052453;28;19921;-74
2024/01/14 06:39:02;;;;;;;;;;;-3.60;65.60;;;;;;5048099;28;19967;-74
2024/01/14 06:41:28;;;;;;;;;;;-3.60;65.70;;;;;;5051516;28;20379;-74
2024/01/14 06:43:54;;;;;;;;;;;-3.60;66.00;;;;;;5053803;28;19921;-75
2024/01/14 06:46:20;;;;;;;;;;;-3.60;66.20;;;;;;5042923;28;20399;-74
2024/01/14 06:48:46;;;;;;;;;;;-3.60;66.20;;;;;;5035472;28;19928;-73
2024/01/14 06:51:11;;;;;;;;;;;-3.60;66.60;;;;;;5050795;28;19921;-74
2024/01/14 06:53:37;;;;;;;;;;;-3.60;66.30;;;;;;5053095;28;20446;-74
2024/01/14 06:56:04;;;;;;;;;;;-3.60;66.50;;;;;;5053180;28;19983;-74
2024/01/14 06:58:30;;;;;;;;;;;-3.50;65.70;;;;;;5051403;28;20279;-74
2024/01/14 07:00:56;;;;;;;;;;;-3.50;66.40;;;;;;5051041;28;19956;-75
2024/01/14 07:03:21;;;;;;;;;;;-3.50;66.20;;;;;;5051648;28;19925;-74
2024/01/14 07:05:47;;;;;;;;;;;-3.50;66.10;;;;;;5051443;28;19916;-74
2024/01/14 07:08:13;;;;;;;;;;;-3.40;66.20;;;;;;5034992;28;20289;-74
2024/01/14 07:10:39;;;;;;;;;;;-3.40;66.00;;;;;;5052383;28;20023;-73
2024/01/14 07:13:05;;;;;;;;;;;-3.30;66.50;;;;;;5051779;28;19960;-74
2024/01/14 07:15:31;;;;;;;;;;;-3.30;66.40;;;;;;5051609;28;19916;-74
2024/01/14 07:17:57;;;;;;;;;;;-3.30;66.50;;;;;;5051541;28;20011;-74
2024/01/14 07:20:23;;;;;;;;;;;-3.20;66.50;;;;;;5050703;28;20358;-74
2024/01/14 07:22:48;;;;;;;;;;;-3.20;66.40;;;;;;5051061;28;19928;-73
2024/01/14 07:25:14;;;;;;;;;;;-3.10;66.30;;;;;;5049963;28;20388;-74
2024/01/14 07:27:40;;;;;;;;;;;-3.00;66.30;;;;;;5052432;28;20361;-74
2024/01/14 07:30:06;;;;;;;;;;;-3.00;66.20;;;;;;5058808;28;19917;-74
2024/01/14 07:32:32;;;;;;;;;;;-2.90;66.00;;;;;;5049930;28;19919;-74
2024/01/14 07:34:58;;;;;;;;;;;-2.80;65.80;;;;;;5052107;28;19921;-74
2024/01/14 07:37:24;;;;;;;;;;;-2.70;65.80;;;;;;5034555;28;19917;-74
2024/01/14 07:39:51;;;;;;;;;;;-2.60;65.50;;;;;;5050616;28;19920;-74
2024/01/14 07:42:16;;;;;;;;;;;-2.50;64.90;;;;;;5051998;28;19924;-74
2024/01/14 07:44:43;;;;;;;;;;;-2.50;65.30;;;;;;5051010;28;19925;-74
2024/01/14 07:47:09;;;;;;;;;;;-2.30;65.00;;;;;;5050880;28;19917;-75
2024/01/14 07:49:35;;;;;;;;;;;-2.30;65.10;;;;;;5051132;28;19943;-74
2024/01/14 07:52:02;;;;;;;;;;;-2.20;65.00;;;;;;5051292;28;20456;-74
2024/01/14 07:54:27;;;;;;;;;;;-2.10;64.80;;;;;;5050904;28;19921;-74
2024/01/14 07:56:53;;;;;;;;;;;-2.10;65.00;;;;;;5050858;28;19963;-74
2024/01/14 07:59:20;;;;;;;;;;;-2.00;64.70;;;;;;5050576;28;19921;-74
2024/01/14 08:01:46;;;;;;;;;;;-1.90;64.80;;;;;;5032786;28;19931;-74
2024/01/14 08:04:12;;;;;;;;;;;-1.80;64.70;;;;;;5051987;28;19921;-74
2024/01/14 08:06:38;;;;;;;;;;;-1.80;64.60;;;;;;5050703;28;19970;-74
2024/01/14 08:09:04;;;;;;;;;;;-1.70;64.60;;;;;;5050411;28;20426;-74
2024/01/14 08:11:31;;;;;;;;;;;-1.50;64.30;;;;;;5051308;28;19974;-73
2024/01/14 08:13:58;;;;;;;;;;;-1.40;64.20;;;;;;5050425;28;20421;-74
2024/01/14 08:16:24;;;;;;;;;;;-1.40;64.30;;;;;;5050184;28;19971;-75
2024/01/14 08:18:50;;;;;;;;;;;-1.30;64.40;;;;;;5050780;28;19921;-74
2024/01/14 08:21:16;;;;;;;;;;;-1.10;64.20;;;;;;5050112;28;19924;-74
2024/01/14 08:23:43;;;;;;;;;;;-1.10;64.10;;;;;;5051295;28;19927;-74
2024/01/14 08:26:09;;;;;;;;;;;-1.00;63.80;;;;;;5050601;28;19917;-74
2024/01/14 08:28:36;;;;;;;;;;;-0.90;63.70;;;;;;5049603;28;19920;-74
2024/01/14 08:31:02;;;;;;;;;;;-0.80;63.40;;;;;;5033049;28;19970;-74
2024/01/14 08:33:28;;;;;;;;;;;-0.70;63.50;;;;;;5033233;28;20274;-74
2024/01/14 08:35:55;;;;;;;;;;;-0.60;63.30;;;;;;5050147;28;19917;-73
2024/01/14 08:38:21;;;;;;;;;;;-0.50;62.70;;;;;;5049544;28;20436;-74
2024/01/14 08:40:47;;;;;;;;;;;-0.40;62.90;;;;;;5049182;28;20302;-73
2024/01/14 08:43:13;;;;;;;;;;;-0.30;62.40;;;;;;5049738;28;19921;-74
2024/01/14 08:45:39;;;;;;;;;;;-0.20;62.80;;;;;;5049612;28;19927;-74
2024/01/14 08:48:06;;;;;;;;;;;0.00;62.60;;;;;;5049763;28;19960;-74
2024/01/14 08:50:32;;;;;;;;;;;0.00;61.70;;;;;;5049155;28;20402;-74
2024/01/14 08:52:58;;;;;;;;;;;0.10;62.20;;;;;;5049766;28;19931;-74
2024/01/14 08:55:24;;;;;;;;;;;0.30;62.30;;;;;;5049705;28;20437;-74
2024/01/14 08:57:50;;;;;;;;;;;0.40;62.10;;;;;;5050807;28;20346;-74
2024/01/14 09:00:17;;;;;;;;;;;0.50;62.00;;;;;;5032917;28;20019;-74
2024/01/14 09:02:43;;;;;;;;;;;0.50;61.20;;;;;;5033154;28;19939;-73
2024/01/14 09:05:09;;;;;;;;;;;0.70;61.80;;;;;;5051049;28;20015;-74
2024/01/14 09:07:35;;;;;;;;;;;0.80;61.50;;;;;;5032485;28;19917;-73
2024/01/14 09:10:01;;;;;;;;;;;0.90;61.40;;;;;;5049648;28;20015;-74
2024/01/14 09:12:27;;;;;;;;;;;1.10;61.30;;;;;;5048537;28;20379;-74
2024/01/14 09:14:52;;;;;;;;;;;1.20;60.90;;;;;;5054462;28;19931;-74
2024/01/14 09:17:18;;;;;;;;;;;1.30;60.90;;;;;;5054945;28;19920;-73
2024/01/14 09:19:44;;;;;;;;;;;1.40;61.60;;;;;;5055428;28;19921;-74
2024/01/14 09:22:10;;;;;;;;;;;1.50;60.70;;;;;;5054006;28;19928;-74
2024/01/14 09:24:37;;;;;;;;;;;1.70;60.60;;;;;;5055285;28;19921;-74
2024/01/14 09:27:03;;;;;;;;;;;1.80;60.10;;;;;;5053588;28;20370;-74
2024/01/14 09:29:30;;;;;;;;;;;1.90;60.10;;;;;;5053780;28;19925;-74
2024/01/14 09:31:56;;;;;;;;;;;1.90;60.00;;;;;;5054271;28;20137;-74
2024/01/14 09:34:22;;;;;;;;;;;2.10;60.00;;;;;;5054747;28;19974;-74
2024/01/14 09:36:48;;;;;;;;;;;2.30;60.40;;;;;;5054606;28;19920;-74
2024/01/14 09:39:13;;;;;;;;;;;2.40;59.30;;;;;;5054991;28;19927;-73
2024/01/14 09:42:17;;;;;;;;;;;2.60;59.10;;;;;;5053924;28;19999;-75
2024/01/14 09:44:45;;;;;;;;;;;2.70;58.80;;;;;;5054928;28;19925;-74
2024/01/14 09:47:12;;;;;;;;;;;2.70;58.50;;;;;;5069591;28;20023;-73
2024/01/14 09:49:38;;;;;;;;;;;2.90;58.40;;;;;;5036939;28;19921;-74
2024/01/14 09:52:05;;;;;;;;;;;3.10;58.30;;;;;;5052247;28;19925;-74
2024/01/14 09:54:32;;;;;;;;;;;3.40;57.70;;;;;;5054937;28;19928;-73
2024/01/14 09:57:05;;;;;;;;;;;3.60;57.20;;;;;;5054001;28;19921;-74
2024/01/14 09:59:33;;;;;;;;;;;3.90;56.20;;;;;;5034675;28;19966;-74
2024/01/14 10:01:59;;;;;;;;;;;4.20;55.80;;;;;;5032807;28;19971;-74
2024/01/14 10:04:25;;;;;;;;;;;4.60;55.60;;;;;;5033076;28;19921;-74
2024/01/14 10:06:52;;;;;;;;;;;4.90;54.60;;;;;;5029345;28;19921;-74
2024/01/14 10:09:18;;;;;;;;;;;4.90;54.40;;;;;;5046351;28;19939;-74
2024/01/14 10:11:46;;;;;;;;;;;5.10;54.10;;;;;;5039575;28;19920;-73
2024/01/14 10:14:11;;;;;;;;;;;5.30;54.00;;;;;;5035795;28;19929;-73
2024/01/14 10:16:41;;;;;;;;;;;5.70;53.50;;;;;;5041059;28;20436;-73
2024/01/14 10:19:07;;;;;;;;;;;5.80;52.30;;;;;;5051419;28;19921;-73
2024/01/14 10:21:33;;;;;;;;;;;6.00;52.10;;;;;;5047496;28;20436;-73
2024/01/14 10:24:19;;;;;;;;;;;6.00;52.10;;;;;;5047611;28;20017;-73
2024/01/14 10:26:45;;;;;;;;;;;6.00;52.00;;;;;;5062472;28;19920;-74
2024/01/14 10:29:11;;;;;;;;;;;6.50;51.60;;;;;;5046466;28;20603;-73
2024/01/14 10:31:37;;;;;;;;;;;7.30;50.30;;;;;;5046960;28;19921;-73
2024/01/14 10:34:03;;;;;;;;;;;8.10;48.20;;;;;;5047984;28;20297;-73
2024/01/14 10:36:31;;;;;;;;;;;8.40;46.20;;;;;;5047252;28;19928;-73
2024/01/14 10:41:43;;;;;;;;;;;9.40;43.80;;;;;;5051001;28;20050;-73
2024/01/14 10:44:11;;;;;;;;;;;9.50;44.20;;;;;;5044811;28;20258;-73
2024/01/14 10:46:38;;;;;;;;;;;9.20;44.50;;;;;;5038181;28;19917;-74
2024/01/14 10:49:08;;;;;;;;;;;9.40;45.60;;;;;;5048151;28;19921;-73
2024/01/14 10:51:39;;;;;;;;;;;10.10;43.60;;;;;;5063281;28;19951;-74
2024/01/14 10:54:09;;;;;;;;;;;10.40;42.80;;;;;;5064632;28;19931;-73
2024/01/14 10:56:39;;;;;;;;;;;10.70;42.30;;;;;;5048649;28;19928;-73
2024/01/14 10:59:08;;;;;;;;;;;10.80;43.10;;;;;;5046098;28;19924;-73
2024/01/14 11:01:36;;;;;;;;;;;10.60;42.60;;;;;;5050169;28;19998;-74
2024/01/14 11:04:03;;;;;;;;;;;10.40;42.70;;;;;;5040498;28;20370;-74
2024/01/14 11:06:29;;;;;;;;;;;10.10;43.80;;;;;;5040270;28;19921;-72
2024/01/14 11:08:55;;;;;;;;;;;10.10;44.30;;;;;;5056294;28;19927;-74
2024/01/14 11:11:26;;;;;;;;;;;10.20;44.00;;;;;;5045382;28;19964;-73
2024/01/14 11:13:59;;;;;;;;;;;10.30;43.20;;;;;;5048764;28;19970;-73
2024/01/14 11:16:47;;;;;;;;;;;10.70;42.70;;;;;;5037504;28;20325;-74
2024/01/14 11:19:16;;;;;;;;;;;11.30;40.70;;;;;;5038624;28;19952;-73
2024/01/14 11:22:01;;;;;;;;;;;11.50;40.60;;;;;;5049022;28;19935;-73
2024/01/14 11:24:27;;;;;;;;;;;11.60;40.40;;;;;;5046441;28;20365;-73
2024/01/14 11:26:56;;;;;;;;;;;11.50;40.30;;;;;;5051543;28;19932;-74
2024/01/14 11:29:41;;;;;;;;;;;11.50;40.10;;;;;;5032060;28;19960;-72
2024/01/14 11:32:09;;;;;;;;;;;11.70;40.60;;;;;;5049758;28;19924;-73
2024/01/14 11:34:54;;;;;;;;;;;11.80;40.00;;;;;;5029373;28;19928;-73
2024/01/14 11:37:40;;;;;;;;;;;12.10;38.90;;;;;;5033588;28;19947;-73
2024/01/14 11:43:13;;;;;;;;;;;12.20;38.90;;;;;;5048093;28;19941;-73
2024/01/14 11:45:40;;;;;;;;;;;11.80;40.20;;;;;;5030027;28;19979;-74
2024/01/14 11:48:08;;;;;;;;;;;11.60;39.90;;;;;;5065404;28;20358;-73
2024/01/14 11:50:35;;;;;;;;;;;11.60;39.70;;;;;;5029182;28;19921;-74
2024/01/14 11:53:04;;;;;;;;;;;11.90;38.80;;;;;;5066130;28;19924;-73
2024/01/14 11:55:49;;;;;;;;;;;12.10;39.00;;;;;;5051134;28;19971;-74
2024/01/14 11:58:16;;;;;;;;;;;12.50;37.10;;;;;;5047090;28;19920;-73
2024/01/14 12:00:43;;;;;;;;;;;12.40;37.90;;;;;;5046254;28;19921;-74
2024/01/14 12:03:28;;;;;;;;;;;12.30;37.50;;;;;;5049700;28;20415;-73
2024/01/14 12:06:00;;;;;;;;;;;13.00;36.10;;;;;;5049750;28;20015;-73
2024/01/14 12:08:26;;;;;;;;;;;14.10;34.10;;;;;;5061414;28;19921;-73
2024/01/14 12:10:52;;;;;;;;;;;14.60;32.40;;;;;;5048953;28;20487;-74
2024/01/14 12:13:18;;;;;;;;;;;14.40;32.80;;;;;;5035956;28;19929;-73
2024/01/14 12:15:44;;;;;;;;;;;14.30;32.50;;;;;;5045510;28;20317;-74
2024/01/14 12:18:10;;;;;;;;;;;13.80;33.20;;;;;;5043043;28;19927;-73
2024/01/14 12:20:36;;;;;;;;;;;13.30;34.00;;;;;;5047626;28;20170;-73
2024/01/14 12:23:04;;;;;;;;;;;13.00;34.60;;;;;;5048631;28;20019;-73
2024/01/14 12:25:31;;;;;;;;;;;12.70;34.80;;;;;;5044416;28;20007;-73
2024/01/14 12:27:58;;;;;;;;;;;12.70;34.80;;;;;;5047373;28;19924;-73
2024/01/14 12:30:24;;;;;;;;;;;12.90;34.90;;;;;;5030499;28;19928;-73
2024/01/14 12:32:50;;;;;;;;;;;12.90;34.40;;;;;;5042680;28;19924;-73
2024/01/14 12:35:16;;;;;;;;;;;12.80;35.10;;;;;;5023305;28;20027;-73
2024/01/14 12:37:42;;;;;;;;;;;13.00;35.20;;;;;;5045818;28;20011;-73
2024/01/14 12:40:09;;;;;;;;;;;13.00;34.40;;;;;;5060180;28;19916;-73
2024/01/14 12:42:34;;;;;;;;;;;13.10;34.90;;;;;;5043856;28;19967;-73
2024/01/14 12:45:01;;;;;;;;;;;13.20;34.90;;;;;;5045632;28;19944;-73
2024/01/14 12:47:27;;;;;;;;;;;13.30;34.80;;;;;;5024193;28;19924;-73
2024/01/14 12:49:54;;;;;;;;;;;13.20;34.60;;;;;;5027189;28;20421;-74
2024/01/14 12:52:20;;;;;;;;;;;13.40;35.10;;;;;;5045884;28;19921;-73
2024/01/14 12:54:48;;;;;;;;;;;13.60;34.50;;;;;;5045364;28;20278;-72
2024/01/14 12:57:14;;;;;;;;;;;13.70;34.50;;;;;;5045277;28;19923;-73
2024/01/14 12:59:40;;;;;;;;;;;13.80;34.30;;;;;;5039162;28;20015;-74
2024/01/14 13:02:06;;;;;;;;;;;13.80;34.30;;;;;;5044547;28;20007;-73
2024/01/14 13:04:32;;;;;;;;;;;13.80;34.50;;;;;;5047971;28;20128;-73
2024/01/14 13:06:58;;;;;;;;;;;13.80;34.40;;;;;;5027927;28;19917;-73
2024/01/14 13:09:24;;;;;;;;;;;13.80;34.10;;;;;;5046603;28;19921;-74
2024/01/14 13:11:50;;;;;;;;;;;13.60;33.80;;;;;;5046260;28;19951;-74
2024/01/14 13:14:16;;;;;;;;;;;13.40;34.60;;;;;;5047180;28;20262;-74
2024/01/14 13:16:42;;;;;;;;;;;13.40;34.80;;;;;;5050101;28;19956;-74
2024/01/14 13:19:08;;;;;;;;;;;13.40;34.40;;;;;;5043963;28;19921;-74
2024/01/14 13:21:35;;;;;;;;;;;13.30;35.10;;;;;;5061873;28;20011;-74
2024/01/14 13:24:01;;;;;;;;;;;13.50;35.00;;;;;;5050808;28;19974;-74
2024/01/14 13:26:28;;;;;;;;;;;13.40;34.70;;;;;;5025617;28;20087;-73
2024/01/14 13:28:55;;;;;;;;;;;13.40;35.20;;;;;;5061650;28;19921;-75
2024/01/14 13:31:21;;;;;;;;;;;13.40;34.60;;;;;;5059365;28;19924;-74
2024/01/14 13:33:47;;;;;;;;;;;13.30;35.10;;;;;;5050479;28;19947;-73
2024/01/14 13:36:13;;;;;;;;;;;13.20;35.20;;;;;;5045764;28;19979;-73
2024/01/14 13:38:39;;;;;;;;;;;12.90;35.40;;;;;;5049320;28;19924;-74
2024/01/14 13:41:05;;;;;;;;;;;12.80;35.80;;;;;;5045091;28;19927;-73
2024/01/14 13:43:31;;;;;;;;;;;12.80;36.00;;;;;;5045343;28;19932;-73
2024/01/14 13:45:57;;;;;;;;;;;12.50;35.90;;;;;;5049820;28;19916;-73
2024/01/14 13:48:23;;;;;;;;;;;12.30;36.40;;;;;;5045846;28;20373;-75
2024/01/14 13:50:49;;;;;;;;;;;12.20;36.80;;;;;;5045434;28;20341;-75
2024/01/14 13:53:15;;;;;;;;;;;12.50;36.60;;;;;;5049051;28;20712;-74
2024/01/14 13:55:41;;;;;;;;;;;12.60;36.10;;;;;;5045780;28;20435;-74
2024/01/14 13:58:07;;;;;;;;;;;12.30;36.30;;;;;;5043650;28;19970;-73
2024/01/14 14:00:34;;;;;;;;;;;12.20;36.90;;;;;;5038832;28;19932;-74
2024/01/14 14:03:00;;;;;;;;;;;11.90;37.20;;;;;;5033111;28;20372;-73
2024/01/14 14:05:26;;;;;;;;;;;11.70;37.10;;;;;;5036421;28;19956;-75
2024/01/14 14:07:52;;;;;;;;;;;11.70;37.60;;;;;;5049304;28;20354;-74
2024/01/14 14:10:18;;;;;;;;;;;11.60;38.10;;;;;;5042020;28;19923;-73
2024/01/14 14:12:44;;;;;;;;;;;11.50;38.40;;;;;;5035034;28;19913;-73
2024/01/14 14:15:10;;;;;;;;;;;11.40;38.20;;;;;;5046102;28;19928;-74
2024/01/14 14:17:36;;;;;;;;;;;11.50;38.60;;;;;;5046928;28;19969;-74
2024/01/14 14:20:02;;;;;;;;;;;11.50;39.00;;;;;;5047959;28;19931;-75
2024/01/14 14:22:28;;;;;;;;;;;11.30;39.00;;;;;;5049495;28;20366;-73
2024/01/14 14:24:56;;;;;;;;;;;11.30;39.30;;;;;;5031916;28;19932;-73